sensor_id;sensor_type;location;lat;lon;timestamp;P1;durP1;ratioP1;P2;durP2;ratioP2
16837;SDS011;19510;54.486;9.046;2023-07-29T00:00:49;3.30;;;2.47;;
16837;SDS011;19510;54.486;9.046;2023-07-29T00:03:15;2.97;;;2.42;;
16837;SDS011;19510;54.486;9.046;2023-07-29T00:05:42;3.67;;;2.42;;
16837;SDS011;19510;54.486;9.046;2023-07-29T00:10:37;4.65;;;2.30;;
16837;SDS011;19510;54.486;9.046;2023-07-29T00:13:05;3.33;;;2.40;;
16837;SDS011;19510;54.486;9.046;2023-07-29T00:15:32;4.47;;;2.58;;
16837;SDS011;19510;54.486;9.046;2023-07-29T00:17:58;2.35;;;1.95;;
16837;SDS011;19510;54.486;9.046;2023-07-29T00:20:24;2.42;;;1.90;;
16837;SDS011;19510;54.486;9.046;2023-07-29T00:22:49;2.35;;;2.00;;
16837;SDS011;19510;54.486;9.046;2023-07-29T00:25:18;3.85;;;2.15;;
16837;SDS011;19510;54.486;9.046;2023-07-29T00:27:43;3.33;;;1.70;;
16837;SDS011;19510;54.486;9.046;2023-07-29T00:30:09;2.78;;;1.90;;
16837;SDS011;19510;54.486;9.046;2023-07-29T00:32:38;3.25;;;2.13;;
16837;SDS011;19510;54.486;9.046;2023-07-29T00:35:04;3.08;;;2.03;;
16837;SDS011;19510;54.486;9.046;2023-07-29T00:37:30;3.90;;;2.80;;
16837;SDS011;19510;54.486;9.046;2023-07-29T00:39:56;5.68;;;3.00;;
16837;SDS011;19510;54.486;9.046;2023-07-29T00:42:23;3.38;;;2.75;;
16837;SDS011;19510;54.486;9.046;2023-07-29T00:44:49;4.68;;;3.33;;
16837;SDS011;19510;54.486;9.046;2023-07-29T00:47:15;5.07;;;3.50;;
16837;SDS011;19510;54.486;9.046;2023-07-29T00:49:41;4.18;;;3.17;;
16837;SDS011;19510;54.486;9.046;2023-07-29T00:52:08;5.63;;;3.00;;
16837;SDS011;19510;54.486;9.046;2023-07-29T00:54:37;4.60;;;2.88;;
16837;SDS011;19510;54.486;9.046;2023-07-29T00:57:04;4.45;;;3.47;;
16837;SDS011;19510;54.486;9.046;2023-07-29T00:59:30;6.65;;;3.58;;
16837;SDS011;19510;54.486;9.046;2023-07-29T01:01:57;4.93;;;3.90;;
16837;SDS011;19510;54.486;9.046;2023-07-29T01:04:23;5.22;;;3.67;;
16837;SDS011;19510;54.486;9.046;2023-07-29T01:09:20;9.45;;;3.58;;
16837;SDS011;19510;54.486;9.046;2023-07-29T01:14:31;4.75;;;4.10;;
16837;SDS011;19510;54.486;9.046;2023-07-29T01:17:04;6.85;;;4.32;;
16837;SDS011;19510;54.486;9.046;2023-07-29T01:22:10;4.47;;;3.40;;
16837;SDS011;19510;54.486;9.046;2023-07-29T01:24:37;4.03;;;3.15;;
16837;SDS011;19510;54.486;9.046;2023-07-29T01:27:04;3.85;;;2.60;;
16837;SDS011;19510;54.486;9.046;2023-07-29T01:29:30;3.47;;;2.80;;
16837;SDS011;19510;54.486;9.046;2023-07-29T01:31:57;4.40;;;3.13;;
16837;SDS011;19510;54.486;9.046;2023-07-29T01:34:35;4.07;;;3.20;;
16837;SDS011;19510;54.486;9.046;2023-07-29T01:37:14;4.00;;;3.35;;
16837;SDS011;19510;54.486;9.046;2023-07-29T01:39:44;3.72;;;2.78;;
16837;SDS011;19510;54.486;9.046;2023-07-29T01:42:11;4.25;;;3.17;;
16837;SDS011;19510;54.486;9.046;2023-07-29T01:44:37;4.28;;;3.13;;
16837;SDS011;19510;54.486;9.046;2023-07-29T01:47:03;4.13;;;2.85;;
16837;SDS011;19510;54.486;9.046;2023-07-29T01:49:29;4.40;;;3.10;;
16837;SDS011;19510;54.486;9.046;2023-07-29T01:51:55;4.45;;;2.67;;
16837;SDS011;19510;54.486;9.046;2023-07-29T01:54:20;3.72;;;2.97;;
16837;SDS011;19510;54.486;9.046;2023-07-29T01:56:46;4.68;;;3.20;;
16837;SDS011;19510;54.486;9.046;2023-07-29T01:59:12;5.60;;;2.97;;
16837;SDS011;19510;54.486;9.046;2023-07-29T02:01:39;4.43;;;2.92;;
16837;SDS011;19510;54.486;9.046;2023-07-29T02:04:04;3.53;;;2.92;;
16837;SDS011;19510;54.486;9.046;2023-07-29T02:06:30;4.65;;;2.95;;
16837;SDS011;19510;54.486;9.046;2023-07-29T02:08:56;4.55;;;3.13;;
16837;SDS011;19510;54.486;9.046;2023-07-29T02:11:21;4.25;;;3.15;;
16837;SDS011;19510;54.486;9.046;2023-07-29T02:13:52;4.90;;;3.60;;
16837;SDS011;19510;54.486;9.046;2023-07-29T02:16:18;5.85;;;3.42;;
16837;SDS011;19510;54.486;9.046;2023-07-29T02:18:45;5.43;;;3.35;;
16837;SDS011;19510;54.486;9.046;2023-07-29T02:21:10;5.90;;;3.72;;
16837;SDS011;19510;54.486;9.046;2023-07-29T02:23:36;4.53;;;3.42;;
16837;SDS011;19510;54.486;9.046;2023-07-29T02:26:02;7.80;;;3.53;;
16837;SDS011;19510;54.486;9.046;2023-07-29T02:28:27;4.07;;;3.08;;
16837;SDS011;19510;54.486;9.046;2023-07-29T02:33:42;4.82;;;3.03;;
16837;SDS011;19510;54.486;9.046;2023-07-29T02:36:08;7.28;;;3.75;;
16837;SDS011;19510;54.486;9.046;2023-07-29T02:38:34;4.65;;;3.08;;
16837;SDS011;19510;54.486;9.046;2023-07-29T02:41:00;6.65;;;4.38;;
16837;SDS011;19510;54.486;9.046;2023-07-29T02:43:26;5.05;;;3.78;;
16837;SDS011;19510;54.486;9.046;2023-07-29T02:45:51;4.70;;;3.70;;
16837;SDS011;19510;54.486;9.046;2023-07-29T02:48:17;5.97;;;4.05;;
16837;SDS011;19510;54.486;9.046;2023-07-29T02:50:43;7.20;;;4.05;;
16837;SDS011;19510;54.486;9.046;2023-07-29T02:53:09;6.30;;;4.38;;
16837;SDS011;19510;54.486;9.046;2023-07-29T02:55:35;6.82;;;4.28;;
16837;SDS011;19510;54.486;9.046;2023-07-29T03:00:31;5.90;;;4.15;;
16837;SDS011;19510;54.486;9.046;2023-07-29T03:02:56;6.60;;;4.50;;
16837;SDS011;19510;54.486;9.046;2023-07-29T03:05:22;11.35;;;6.18;;
16837;SDS011;19510;54.486;9.046;2023-07-29T03:07:48;7.28;;;4.50;;
16837;SDS011;19510;54.486;9.046;2023-07-29T03:10:13;9.45;;;5.18;;
16837;SDS011;19510;54.486;9.046;2023-07-29T03:12:40;8.02;;;4.90;;
16837;SDS011;19510;54.486;9.046;2023-07-29T03:15:06;8.30;;;5.35;;
16837;SDS011;19510;54.486;9.046;2023-07-29T03:17:32;8.20;;;5.25;;
16837;SDS011;19510;54.486;9.046;2023-07-29T03:19:57;6.55;;;4.75;;
16837;SDS011;19510;54.486;9.046;2023-07-29T03:22:23;7.80;;;4.97;;
16837;SDS011;19510;54.486;9.046;2023-07-29T03:24:49;8.93;;;5.40;;
16837;SDS011;19510;54.486;9.046;2023-07-29T03:27:14;9.82;;;5.00;;
16837;SDS011;19510;54.486;9.046;2023-07-29T03:29:41;8.57;;;4.95;;
16837;SDS011;19510;54.486;9.046;2023-07-29T03:32:07;8.35;;;5.00;;
16837;SDS011;19510;54.486;9.046;2023-07-29T03:34:33;8.85;;;6.10;;
16837;SDS011;19510;54.486;9.046;2023-07-29T03:36:59;9.45;;;6.13;;
16837;SDS011;19510;54.486;9.046;2023-07-29T03:39:26;10.65;;;5.72;;
16837;SDS011;19510;54.486;9.046;2023-07-29T03:41:52;7.90;;;5.10;;
16837;SDS011;19510;54.486;9.046;2023-07-29T03:44:20;9.10;;;4.90;;
16837;SDS011;19510;54.486;9.046;2023-07-29T03:46:45;7.32;;;4.95;;
16837;SDS011;19510;54.486;9.046;2023-07-29T03:49:11;7.20;;;4.68;;
16837;SDS011;19510;54.486;9.046;2023-07-29T03:51:37;7.75;;;5.25;;
16837;SDS011;19510;54.486;9.046;2023-07-29T03:54:02;6.68;;;4.90;;
16837;SDS011;19510;54.486;9.046;2023-07-29T03:56:28;9.13;;;5.57;;
16837;SDS011;19510;54.486;9.046;2023-07-29T03:58:56;9.27;;;5.50;;
16837;SDS011;19510;54.486;9.046;2023-07-29T04:01:30;7.10;;;5.00;;
16837;SDS011;19510;54.486;9.046;2023-07-29T04:03:57;10.05;;;5.82;;
16837;SDS011;19510;54.486;9.046;2023-07-29T04:06:23;8.55;;;5.05;;
16837;SDS011;19510;54.486;9.046;2023-07-29T04:08:49;9.27;;;5.78;;
16837;SDS011;19510;54.486;9.046;2023-07-29T04:11:14;5.72;;;4.00;;
16837;SDS011;19510;54.486;9.046;2023-07-29T04:13:40;8.38;;;5.55;;
16837;SDS011;19510;54.486;9.046;2023-07-29T04:16:06;7.45;;;5.22;;
16837;SDS011;19510;54.486;9.046;2023-07-29T04:18:32;8.60;;;5.60;;
16837;SDS011;19510;54.486;9.046;2023-07-29T04:20:58;9.95;;;5.30;;
16837;SDS011;19510;54.486;9.046;2023-07-29T04:23:24;8.02;;;5.22;;
16837;SDS011;19510;54.486;9.046;2023-07-29T04:25:50;6.40;;;4.65;;
16837;SDS011;19510;54.486;9.046;2023-07-29T04:28:16;9.15;;;5.57;;
16837;SDS011;19510;54.486;9.046;2023-07-29T04:30:43;9.30;;;5.65;;
16837;SDS011;19510;54.486;9.046;2023-07-29T04:33:09;9.43;;;6.28;;
16837;SDS011;19510;54.486;9.046;2023-07-29T04:35:34;9.65;;;6.00;;
16837;SDS011;19510;54.486;9.046;2023-07-29T04:38:00;9.85;;;6.05;;
16837;SDS011;19510;54.486;9.046;2023-07-29T04:40:26;9.88;;;6.70;;
16837;SDS011;19510;54.486;9.046;2023-07-29T04:42:51;9.35;;;6.05;;
16837;SDS011;19510;54.486;9.046;2023-07-29T04:45:17;8.95;;;5.38;;
16837;SDS011;19510;54.486;9.046;2023-07-29T04:47:43;10.77;;;5.82;;
16837;SDS011;19510;54.486;9.046;2023-07-29T04:50:09;9.88;;;6.05;;
16837;SDS011;19510;54.486;9.046;2023-07-29T04:52:34;10.27;;;6.35;;
16837;SDS011;19510;54.486;9.046;2023-07-29T04:55:00;10.38;;;6.43;;
16837;SDS011;19510;54.486;9.046;2023-07-29T04:57:26;9.63;;;6.00;;
16837;SDS011;19510;54.486;9.046;2023-07-29T04:59:51;8.90;;;6.22;;
16837;SDS011;19510;54.486;9.046;2023-07-29T05:02:17;9.18;;;6.05;;
16837;SDS011;19510;54.486;9.046;2023-07-29T05:04:43;8.85;;;5.82;;
16837;SDS011;19510;54.486;9.046;2023-07-29T05:07:08;12.23;;;5.68;;
16837;SDS011;19510;54.486;9.046;2023-07-29T05:09:34;9.73;;;6.50;;
16837;SDS011;19510;54.486;9.046;2023-07-29T05:12:00;10.13;;;6.82;;
16837;SDS011;19510;54.486;9.046;2023-07-29T05:14:25;9.02;;;5.75;;
16837;SDS011;19510;54.486;9.046;2023-07-29T05:16:51;10.70;;;5.82;;
16837;SDS011;19510;54.486;9.046;2023-07-29T05:19:17;10.88;;;6.30;;
16837;SDS011;19510;54.486;9.046;2023-07-29T05:21:43;9.82;;;6.40;;
16837;SDS011;19510;54.486;9.046;2023-07-29T05:24:08;11.23;;;6.63;;
16837;SDS011;19510;54.486;9.046;2023-07-29T05:26:34;12.32;;;6.80;;
16837;SDS011;19510;54.486;9.046;2023-07-29T05:29:00;10.55;;;6.15;;
16837;SDS011;19510;54.486;9.046;2023-07-29T05:31:25;12.63;;;6.97;;
16837;SDS011;19510;54.486;9.046;2023-07-29T05:33:51;11.60;;;6.63;;
16837;SDS011;19510;54.486;9.046;2023-07-29T05:36:17;12.80;;;6.72;;
16837;SDS011;19510;54.486;9.046;2023-07-29T05:38:42;9.40;;;5.80;;
16837;SDS011;19510;54.486;9.046;2023-07-29T05:41:08;8.77;;;5.72;;
16837;SDS011;19510;54.486;9.046;2023-07-29T05:43:34;8.85;;;5.80;;
16837;SDS011;19510;54.486;9.046;2023-07-29T05:45:59;10.02;;;5.97;;
16837;SDS011;19510;54.486;9.046;2023-07-29T05:48:25;9.88;;;6.28;;
16837;SDS011;19510;54.486;9.046;2023-07-29T05:50:52;10.07;;;6.45;;
16837;SDS011;19510;54.486;9.046;2023-07-29T05:53:18;10.43;;;6.82;;
16837;SDS011;19510;54.486;9.046;2023-07-29T05:55:43;8.98;;;6.22;;
16837;SDS011;19510;54.486;9.046;2023-07-29T05:58:09;10.77;;;6.45;;
16837;SDS011;19510;54.486;9.046;2023-07-29T06:00:35;8.07;;;5.32;;
16837;SDS011;19510;54.486;9.046;2023-07-29T06:03:00;11.20;;;6.43;;
16837;SDS011;19510;54.486;9.046;2023-07-29T06:05:26;9.98;;;5.88;;
16837;SDS011;19510;54.486;9.046;2023-07-29T06:07:52;9.10;;;5.60;;
16837;SDS011;19510;54.486;9.046;2023-07-29T06:10:17;9.90;;;5.88;;
16837;SDS011;19510;54.486;9.046;2023-07-29T06:12:44;10.48;;;6.78;;
16837;SDS011;19510;54.486;9.046;2023-07-29T06:15:10;8.80;;;5.47;;
16837;SDS011;19510;54.486;9.046;2023-07-29T06:17:37;12.00;;;5.57;;
16837;SDS011;19510;54.486;9.046;2023-07-29T06:20:03;10.13;;;5.95;;
16837;SDS011;19510;54.486;9.046;2023-07-29T06:22:29;10.75;;;6.18;;
16837;SDS011;19510;54.486;9.046;2023-07-29T06:24:55;10.77;;;6.00;;
16837;SDS011;19510;54.486;9.046;2023-07-29T06:27:21;10.15;;;5.93;;
16837;SDS011;19510;54.486;9.046;2023-07-29T06:29:46;8.52;;;5.32;;
16837;SDS011;19510;54.486;9.046;2023-07-29T06:32:12;9.00;;;5.47;;
16837;SDS011;19510;54.486;9.046;2023-07-29T06:34:40;8.82;;;5.40;;
16837;SDS011;19510;54.486;9.046;2023-07-29T06:37:06;10.85;;;6.03;;
16837;SDS011;19510;54.486;9.046;2023-07-29T06:39:31;10.30;;;5.82;;
16837;SDS011;19510;54.486;9.046;2023-07-29T06:41:59;8.90;;;5.45;;
16837;SDS011;19510;54.486;9.046;2023-07-29T06:44:25;8.38;;;5.53;;
16837;SDS011;19510;54.486;9.046;2023-07-29T06:46:51;9.57;;;5.78;;
16837;SDS011;19510;54.486;9.046;2023-07-29T06:49:17;8.50;;;5.68;;
16837;SDS011;19510;54.486;9.046;2023-07-29T06:51:42;7.53;;;5.00;;
16837;SDS011;19510;54.486;9.046;2023-07-29T06:54:08;10.25;;;5.28;;
16837;SDS011;19510;54.486;9.046;2023-07-29T06:56:34;10.80;;;5.25;;
16837;SDS011;19510;54.486;9.046;2023-07-29T06:59:00;8.35;;;5.50;;
16837;SDS011;19510;54.486;9.046;2023-07-29T07:01:25;8.48;;;4.85;;
16837;SDS011;19510;54.486;9.046;2023-07-29T07:03:51;9.68;;;5.20;;
16837;SDS011;19510;54.486;9.046;2023-07-29T07:06:19;7.20;;;4.97;;
16837;SDS011;19510;54.486;9.046;2023-07-29T07:08:47;8.73;;;5.38;;
16837;SDS011;19510;54.486;9.046;2023-07-29T07:11:13;7.25;;;4.72;;
16837;SDS011;19510;54.486;9.046;2023-07-29T07:13:38;7.25;;;5.00;;
16837;SDS011;19510;54.486;9.046;2023-07-29T07:16:04;7.28;;;4.80;;
16837;SDS011;19510;54.486;9.046;2023-07-29T07:18:30;7.65;;;5.03;;
16837;SDS011;19510;54.486;9.046;2023-07-29T07:20:55;7.07;;;5.28;;
16837;SDS011;19510;54.486;9.046;2023-07-29T07:23:21;6.97;;;4.60;;
16837;SDS011;19510;54.486;9.046;2023-07-29T07:25:47;8.48;;;5.60;;
16837;SDS011;19510;54.486;9.046;2023-07-29T07:28:12;8.68;;;5.50;;
16837;SDS011;19510;54.486;9.046;2023-07-29T07:30:41;6.85;;;4.28;;
16837;SDS011;19510;54.486;9.046;2023-07-29T07:33:07;8.57;;;4.40;;
16837;SDS011;19510;54.486;9.046;2023-07-29T07:35:33;7.43;;;4.07;;
16837;SDS011;19510;54.486;9.046;2023-07-29T07:37:59;6.93;;;4.43;;
16837;SDS011;19510;54.486;9.046;2023-07-29T07:40:27;9.98;;;5.53;;
16837;SDS011;19510;54.486;9.046;2023-07-29T07:42:53;8.73;;;4.97;;
16837;SDS011;19510;54.486;9.046;2023-07-29T07:45:19;7.93;;;5.57;;
16837;SDS011;19510;54.486;9.046;2023-07-29T07:47:45;10.20;;;6.82;;
16837;SDS011;19510;54.486;9.046;2023-07-29T07:50:11;10.23;;;6.97;;
16837;SDS011;19510;54.486;9.046;2023-07-29T07:52:37;12.75;;;8.70;;
16837;SDS011;19510;54.486;9.046;2023-07-29T07:55:02;12.95;;;6.95;;
16837;SDS011;19510;54.486;9.046;2023-07-29T07:57:28;12.05;;;6.25;;
16837;SDS011;19510;54.486;9.046;2023-07-29T07:59:54;11.95;;;7.47;;
16837;SDS011;19510;54.486;9.046;2023-07-29T08:02:19;9.82;;;6.45;;
16837;SDS011;19510;54.486;9.046;2023-07-29T08:04:45;10.57;;;6.57;;
16837;SDS011;19510;54.486;9.046;2023-07-29T08:07:11;9.90;;;7.28;;
16837;SDS011;19510;54.486;9.046;2023-07-29T08:09:38;8.77;;;6.07;;
16837;SDS011;19510;54.486;9.046;2023-07-29T08:12:04;10.57;;;6.60;;
16837;SDS011;19510;54.486;9.046;2023-07-29T08:14:30;10.63;;;7.03;;
16837;SDS011;19510;54.486;9.046;2023-07-29T08:16:55;10.90;;;6.38;;
16837;SDS011;19510;54.486;9.046;2023-07-29T08:19:21;8.23;;;6.18;;
16837;SDS011;19510;54.486;9.046;2023-07-29T08:21:47;9.35;;;6.45;;
16837;SDS011;19510;54.486;9.046;2023-07-29T08:24:12;9.50;;;6.55;;
16837;SDS011;19510;54.486;9.046;2023-07-29T08:26:38;11.65;;;6.32;;
16837;SDS011;19510;54.486;9.046;2023-07-29T08:29:04;11.52;;;6.82;;
16837;SDS011;19510;54.486;9.046;2023-07-29T08:31:29;9.02;;;6.38;;
16837;SDS011;19510;54.486;9.046;2023-07-29T08:33:58;10.60;;;6.82;;
16837;SDS011;19510;54.486;9.046;2023-07-29T08:36:24;10.25;;;6.60;;
16837;SDS011;19510;54.486;9.046;2023-07-29T08:38:51;10.13;;;6.32;;
16837;SDS011;19510;54.486;9.046;2023-07-29T08:41:19;9.25;;;6.20;;
16837;SDS011;19510;54.486;9.046;2023-07-29T08:43:57;9.73;;;6.50;;
16837;SDS011;19510;54.486;9.046;2023-07-29T08:46:42;10.95;;;7.32;;
16837;SDS011;19510;54.486;9.046;2023-07-29T08:49:08;8.38;;;6.60;;
16837;SDS011;19510;54.486;9.046;2023-07-29T08:51:36;9.48;;;6.40;;
16837;SDS011;19510;54.486;9.046;2023-07-29T08:54:02;10.82;;;6.22;;
16837;SDS011;19510;54.486;9.046;2023-07-29T08:56:28;9.77;;;6.90;;
16837;SDS011;19510;54.486;9.046;2023-07-29T08:58:55;8.38;;;6.30;;
16837;SDS011;19510;54.486;9.046;2023-07-29T09:01:21;9.63;;;6.65;;
16837;SDS011;19510;54.486;9.046;2023-07-29T09:03:47;11.55;;;7.07;;
16837;SDS011;19510;54.486;9.046;2023-07-29T09:06:13;11.05;;;7.38;;
16837;SDS011;19510;54.486;9.046;2023-07-29T09:08:39;11.00;;;7.53;;
16837;SDS011;19510;54.486;9.046;2023-07-29T09:11:06;9.65;;;6.07;;
16837;SDS011;19510;54.486;9.046;2023-07-29T09:13:32;10.07;;;6.65;;
16837;SDS011;19510;54.486;9.046;2023-07-29T09:15:57;9.40;;;6.18;;
16837;SDS011;19510;54.486;9.046;2023-07-29T09:18:23;7.78;;;5.28;;
16837;SDS011;19510;54.486;9.046;2023-07-29T09:20:52;7.55;;;4.68;;
16837;SDS011;19510;54.486;9.046;2023-07-29T09:23:18;7.72;;;5.10;;
16837;SDS011;19510;54.486;9.046;2023-07-29T09:25:45;7.95;;;5.25;;
16837;SDS011;19510;54.486;9.046;2023-07-29T09:28:13;8.68;;;4.20;;
16837;SDS011;19510;54.486;9.046;2023-07-29T09:30:40;11.63;;;5.65;;
16837;SDS011;19510;54.486;9.046;2023-07-29T09:33:08;6.30;;;4.10;;
16837;SDS011;19510;54.486;9.046;2023-07-29T09:35:35;6.72;;;3.80;;
16837;SDS011;19510;54.486;9.046;2023-07-29T09:38:04;9.25;;;4.45;;
16837;SDS011;19510;54.486;9.046;2023-07-29T09:40:35;7.05;;;5.15;;
16837;SDS011;19510;54.486;9.046;2023-07-29T09:43:02;7.65;;;4.80;;
16837;SDS011;19510;54.486;9.046;2023-07-29T09:45:35;10.00;;;5.53;;
16837;SDS011;19510;54.486;9.046;2023-07-29T09:48:02;6.40;;;4.57;;
16837;SDS011;19510;54.486;9.046;2023-07-29T09:53:43;6.57;;;4.75;;
16837;SDS011;19510;54.486;9.046;2023-07-29T09:56:10;6.53;;;4.18;;
16837;SDS011;19510;54.486;9.046;2023-07-29T09:58:37;9.10;;;3.53;;
16837;SDS011;19510;54.486;9.046;2023-07-29T10:01:04;8.07;;;3.83;;
16837;SDS011;19510;54.486;9.046;2023-07-29T10:03:33;5.32;;;4.32;;
16837;SDS011;19510;54.486;9.046;2023-07-29T10:06:04;8.65;;;4.28;;
16837;SDS011;19510;54.486;9.046;2023-07-29T10:08:30;7.25;;;4.22;;
16837;SDS011;19510;54.486;9.046;2023-07-29T10:11:09;7.65;;;4.50;;
16837;SDS011;19510;54.486;9.046;2023-07-29T10:13:36;7.60;;;4.03;;
16837;SDS011;19510;54.486;9.046;2023-07-29T10:16:03;6.93;;;4.47;;
16837;SDS011;19510;54.486;9.046;2023-07-29T10:18:30;5.85;;;3.80;;
16837;SDS011;19510;54.486;9.046;2023-07-29T10:20:57;7.47;;;3.83;;
16837;SDS011;19510;54.486;9.046;2023-07-29T10:23:24;5.22;;;3.95;;
16837;SDS011;19510;54.486;9.046;2023-07-29T10:25:55;8.85;;;4.30;;
16837;SDS011;19510;54.486;9.046;2023-07-29T10:28:30;6.88;;;4.00;;
16837;SDS011;19510;54.486;9.046;2023-07-29T10:30:57;7.13;;;4.07;;
16837;SDS011;19510;54.486;9.046;2023-07-29T10:33:24;7.40;;;3.90;;
16837;SDS011;19510;54.486;9.046;2023-07-29T10:35:50;6.18;;;4.10;;
16837;SDS011;19510;54.486;9.046;2023-07-29T10:38:17;5.30;;;3.72;;
16837;SDS011;19510;54.486;9.046;2023-07-29T10:40:52;6.10;;;4.18;;
16837;SDS011;19510;54.486;9.046;2023-07-29T10:43:28;11.02;;;3.88;;
16837;SDS011;19510;54.486;9.046;2023-07-29T10:45:57;5.20;;;3.60;;
16837;SDS011;19510;54.486;9.046;2023-07-29T10:48:40;5.57;;;3.60;;
16837;SDS011;19510;54.486;9.046;2023-07-29T10:51:21;5.20;;;3.75;;
16837;SDS011;19510;54.486;9.046;2023-07-29T10:54:01;4.55;;;3.67;;
16837;SDS011;19510;54.486;9.046;2023-07-29T10:56:40;5.97;;;3.83;;
16837;SDS011;19510;54.486;9.046;2023-07-29T11:01:43;8.38;;;3.92;;
16837;SDS011;19510;54.486;9.046;2023-07-29T11:05:05;7.18;;;3.83;;
16837;SDS011;19510;54.486;9.046;2023-07-29T11:17:36;5.53;;;3.67;;
16837;SDS011;19510;54.486;9.046;2023-07-29T11:20:09;6.63;;;3.83;;
16837;SDS011;19510;54.486;9.046;2023-07-29T11:22:36;6.50;;;3.80;;
16837;SDS011;19510;54.486;9.046;2023-07-29T11:25:03;8.80;;;3.28;;
16837;SDS011;19510;54.486;9.046;2023-07-29T11:27:30;4.35;;;3.45;;
16837;SDS011;19510;54.486;9.046;2023-07-29T11:30:05;5.97;;;2.95;;
16837;SDS011;19510;54.486;9.046;2023-07-29T11:32:33;5.18;;;2.55;;
16837;SDS011;19510;54.486;9.046;2023-07-29T11:35:07;4.40;;;2.85;;
16837;SDS011;19510;54.486;9.046;2023-07-29T11:37:38;5.53;;;2.97;;
16837;SDS011;19510;54.486;9.046;2023-07-29T11:40:09;3.92;;;2.55;;
16837;SDS011;19510;54.486;9.046;2023-07-29T11:42:38;4.88;;;2.58;;
16837;SDS011;19510;54.486;9.046;2023-07-29T11:45:04;4.65;;;2.38;;
16837;SDS011;19510;54.486;9.046;2023-07-29T11:47:32;5.20;;;2.28;;
16837;SDS011;19510;54.486;9.046;2023-07-29T11:50:02;5.65;;;2.38;;
16837;SDS011;19510;54.486;9.046;2023-07-29T11:52:38;4.70;;;2.30;;
16837;SDS011;19510;54.486;9.046;2023-07-29T11:55:07;5.35;;;2.67;;
16837;SDS011;19510;54.486;9.046;2023-07-29T11:57:33;7.07;;;2.20;;
16837;SDS011;19510;54.486;9.046;2023-07-29T12:00:01;4.65;;;2.40;;
16837;SDS011;19510;54.486;9.046;2023-07-29T12:02:32;5.15;;;2.53;;
16837;SDS011;19510;54.486;9.046;2023-07-29T12:04:59;5.30;;;2.50;;
16837;SDS011;19510;54.486;9.046;2023-07-29T12:07:25;7.95;;;2.38;;
16837;SDS011;19510;54.486;9.046;2023-07-29T12:09:52;4.95;;;2.50;;
16837;SDS011;19510;54.486;9.046;2023-07-29T12:12:18;4.47;;;2.13;;
16837;SDS011;19510;54.486;9.046;2023-07-29T12:14:46;4.30;;;1.80;;
16837;SDS011;19510;54.486;9.046;2023-07-29T12:17:12;3.60;;;1.73;;
16837;SDS011;19510;54.486;9.046;2023-07-29T12:19:38;3.00;;;2.08;;
16837;SDS011;19510;54.486;9.046;2023-07-29T12:22:06;3.85;;;2.08;;
16837;SDS011;19510;54.486;9.046;2023-07-29T12:24:34;3.28;;;1.90;;
16837;SDS011;19510;54.486;9.046;2023-07-29T12:27:01;5.93;;;1.95;;
16837;SDS011;19510;54.486;9.046;2023-07-29T12:29:27;4.05;;;1.95;;
16837;SDS011;19510;54.486;9.046;2023-07-29T12:31:57;4.13;;;2.20;;
16837;SDS011;19510;54.486;9.046;2023-07-29T12:34:27;6.03;;;2.40;;
16837;SDS011;19510;54.486;9.046;2023-07-29T12:36:54;4.88;;;2.00;;
16837;SDS011;19510;54.486;9.046;2023-07-29T12:39:22;5.68;;;2.35;;
16837;SDS011;19510;54.486;9.046;2023-07-29T12:41:50;4.72;;;2.20;;
16837;SDS011;19510;54.486;9.046;2023-07-29T12:44:19;5.25;;;2.30;;
16837;SDS011;19510;54.486;9.046;2023-07-29T12:46:45;5.32;;;2.00;;
16837;SDS011;19510;54.486;9.046;2023-07-29T12:49:11;5.05;;;2.33;;
16837;SDS011;19510;54.486;9.046;2023-07-29T12:51:37;5.90;;;2.42;;
16837;SDS011;19510;54.486;9.046;2023-07-29T12:54:03;8.48;;;2.30;;
16837;SDS011;19510;54.486;9.046;2023-07-29T12:56:30;6.97;;;2.83;;
16837;SDS011;19510;54.486;9.046;2023-07-29T12:58:56;6.68;;;2.65;;
16837;SDS011;19510;54.486;9.046;2023-07-29T13:01:23;5.78;;;2.40;;
16837;SDS011;19510;54.486;9.046;2023-07-29T13:03:49;4.78;;;2.30;;
16837;SDS011;19510;54.486;9.046;2023-07-29T13:06:16;5.63;;;2.53;;
16837;SDS011;19510;54.486;9.046;2023-07-29T13:08:42;7.55;;;2.67;;
16837;SDS011;19510;54.486;9.046;2023-07-29T13:11:09;7.03;;;2.38;;
16837;SDS011;19510;54.486;9.046;2023-07-29T13:13:37;6.03;;;2.40;;
16837;SDS011;19510;54.486;9.046;2023-07-29T13:16:03;2.92;;;2.00;;
16837;SDS011;19510;54.486;9.046;2023-07-29T13:18:29;4.78;;;2.08;;
16837;SDS011;19510;54.486;9.046;2023-07-29T13:21:01;6.55;;;2.40;;
16837;SDS011;19510;54.486;9.046;2023-07-29T13:23:27;7.43;;;3.25;;
16837;SDS011;19510;54.486;9.046;2023-07-29T13:25:54;9.82;;;3.03;;
16837;SDS011;19510;54.486;9.046;2023-07-29T13:28:20;4.68;;;1.90;;
16837;SDS011;19510;54.486;9.046;2023-07-29T13:30:46;6.20;;;2.20;;
16837;SDS011;19510;54.486;9.046;2023-07-29T13:33:12;5.35;;;2.42;;
16837;SDS011;19510;54.486;9.046;2023-07-29T13:35:38;6.13;;;1.95;;
16837;SDS011;19510;54.486;9.046;2023-07-29T13:38:03;8.00;;;2.20;;
16837;SDS011;19510;54.486;9.046;2023-07-29T13:40:29;3.40;;;2.00;;
16837;SDS011;19510;54.486;9.046;2023-07-29T13:42:55;7.25;;;2.17;;
16837;SDS011;19510;54.486;9.046;2023-07-29T13:45:21;4.97;;;2.00;;
16837;SDS011;19510;54.486;9.046;2023-07-29T13:47:47;3.75;;;1.95;;
16837;SDS011;19510;54.486;9.046;2023-07-29T13:50:16;5.32;;;1.92;;
16837;SDS011;19510;54.486;9.046;2023-07-29T13:52:43;4.70;;;1.98;;
16837;SDS011;19510;54.486;9.046;2023-07-29T13:55:09;3.05;;;2.00;;
16837;SDS011;19510;54.486;9.046;2023-07-29T13:57:36;3.42;;;1.52;;
16837;SDS011;19510;54.486;9.046;2023-07-29T14:00:02;6.47;;;1.70;;
16837;SDS011;19510;54.486;9.046;2023-07-29T14:02:28;3.72;;;1.70;;
16837;SDS011;19510;54.486;9.046;2023-07-29T14:04:56;3.42;;;1.70;;
16837;SDS011;19510;54.486;9.046;2023-07-29T14:07:21;5.82;;;1.65;;
16837;SDS011;19510;54.486;9.046;2023-07-29T14:09:47;5.07;;;2.05;;
16837;SDS011;19510;54.486;9.046;2023-07-29T14:12:13;4.53;;;1.70;;
16837;SDS011;19510;54.486;9.046;2023-07-29T14:14:40;5.43;;;1.60;;
16837;SDS011;19510;54.486;9.046;2023-07-29T14:17:06;5.13;;;1.58;;
16837;SDS011;19510;54.486;9.046;2023-07-29T14:19:33;5.10;;;1.95;;
16837;SDS011;19510;54.486;9.046;2023-07-29T14:21:59;7.20;;;2.33;;
16837;SDS011;19510;54.486;9.046;2023-07-29T14:24:25;5.30;;;1.58;;
16837;SDS011;19510;54.486;9.046;2023-07-29T14:26:51;4.35;;;1.85;;
16837;SDS011;19510;54.486;9.046;2023-07-29T14:29:16;4.32;;;1.42;;
16837;SDS011;19510;54.486;9.046;2023-07-29T14:31:42;9.05;;;1.77;;
16837;SDS011;19510;54.486;9.046;2023-07-29T14:34:08;3.42;;;1.52;;
16837;SDS011;19510;54.486;9.046;2023-07-29T14:36:36;7.53;;;2.33;;
16837;SDS011;19510;54.486;9.046;2023-07-29T14:39:02;10.10;;;2.00;;
16837;SDS011;19510;54.486;9.046;2023-07-29T14:41:28;5.03;;;1.13;;
16837;SDS011;19510;54.486;9.046;2023-07-29T14:43:55;3.47;;;1.60;;
16837;SDS011;19510;54.486;9.046;2023-07-29T14:46:20;3.25;;;1.67;;
16837;SDS011;19510;54.486;9.046;2023-07-29T14:48:46;3.03;;;1.30;;
16837;SDS011;19510;54.486;9.046;2023-07-29T14:51:12;5.10;;;1.38;;
16837;SDS011;19510;54.486;9.046;2023-07-29T14:53:38;3.15;;;1.40;;
16837;SDS011;19510;54.486;9.046;2023-07-29T14:56:04;4.10;;;1.50;;
16837;SDS011;19510;54.486;9.046;2023-07-29T14:58:30;2.80;;;1.25;;
16837;SDS011;19510;54.486;9.046;2023-07-29T15:00:56;3.03;;;1.23;;
16837;SDS011;19510;54.486;9.046;2023-07-29T15:03:22;4.20;;;1.23;;
16837;SDS011;19510;54.486;9.046;2023-07-29T15:05:48;2.45;;;1.20;;
16837;SDS011;19510;54.486;9.046;2023-07-29T15:08:14;2.72;;;1.45;;
16837;SDS011;19510;54.486;9.046;2023-07-29T15:10:40;3.42;;;1.17;;
16837;SDS011;19510;54.486;9.046;2023-07-29T15:13:09;5.93;;;1.70;;
16837;SDS011;19510;54.486;9.046;2023-07-29T15:15:35;3.13;;;1.30;;